Time;durP1;ratioP1;P1;durP2;ratioP2;P2;SDS_P1;SDS_P2;PMS_P1;PMS_P2;Temp;Humidity;BMP_temperature;BMP_pressure;BME280_temperature;BME280_humidity;BME280_pressure;Samples;Min_cycle;Max_cycle;Signal;HPM_P1;HPM_P2
2024/01/13 00:02:08;;;;;;;0.50;0.50;;;;;;;;;;4976442;28;20502;-83
2024/01/13 00:04:34;;;;;;;0.50;0.50;;;;;;;;;;4976192;28;20096;-84
2024/01/13 00:07:00;;;;;;;0.55;0.55;;;;;;;;;;4973322;28;20038;-83
2024/01/13 00:09:26;;;;;;;0.50;0.50;;;;;;;;;;4957341;28;20035;-83
2024/01/13 00:11:52;;;;;;;0.50;0.50;;;;;;;;;;4973427;28;20057;-83
2024/01/13 00:14:18;;;;;;;0.50;0.50;;;;;;;;;;4972904;28;20054;-82
2024/01/13 00:16:44;;;;;;;0.50;0.50;;;;;;;;;;4956823;28;20046;-83
2024/01/13 00:19:10;;;;;;;0.50;0.50;;;;;;;;;;4958080;28;20073;-82
2024/01/13 00:21:36;;;;;;;0.60;0.60;;;;;;;;;;4961103;28;20046;-82
2024/01/13 00:24:02;;;;;;;0.50;0.50;;;;;;;;;;4960391;28;20485;-82
2024/01/13 00:26:31;;;;;;;0.57;0.57;;;;;;;;;;4960909;28;20104;-83
2024/01/13 00:28:57;;;;;;;0.50;0.50;;;;;;;;;;4969232;28;20042;-83
2024/01/13 00:31:23;;;;;;;0.50;0.50;;;;;;;;;;4976771;28;20121;-84
2024/01/13 00:33:49;;;;;;;0.50;0.50;;;;;;;;;;4974100;28;20050;-83
2024/01/13 00:36:15;;;;;;;0.50;0.50;;;;;;;;;;4966585;28;20524;-83
2024/01/13 00:38:41;;;;;;;0.47;0.47;;;;;;;;;;4978345;28;20070;-84
2024/01/13 00:41:07;;;;;;;0.50;0.50;;;;;;;;;;4981674;28;20043;-81
2024/01/13 00:43:33;;;;;;;0.50;0.50;;;;;;;;;;4986646;28;20125;-82
2024/01/13 00:46:00;;;;;;;0.50;0.50;;;;;;;;;;4995393;28;20521;-82
2024/01/13 00:48:26;;;;;;;0.50;0.50;;;;;;;;;;4991299;28;20034;-83
2024/01/13 00:50:52;;;;;;;0.50;0.50;;;;;;;;;;4990557;28;20130;-83
2024/01/13 00:53:18;;;;;;;0.43;0.43;;;;;;;;;;4970160;28;20379;-83
2024/01/13 00:55:44;;;;;;;0.50;0.50;;;;;;;;;;4967341;28;20039;-83
2024/01/13 00:58:10;;;;;;;0.50;0.50;;;;;;;;;;4979273;28;20093;-83
2024/01/13 01:00:36;;;;;;;0.50;0.50;;;;;;;;;;4995821;28;20049;-83
2024/01/13 01:03:02;;;;;;;0.50;0.50;;;;;;;;;;4979379;28;20042;-84
2024/01/13 01:05:28;;;;;;;0.50;0.50;;;;;;;;;;4980075;28;20050;-83
2024/01/13 01:07:54;;;;;;;0.50;0.50;;;;;;;;;;4979902;28;20041;-84
2024/01/13 01:10:20;;;;;;;0.50;0.50;;;;;;;;;;4979767;28;20046;-83
2024/01/13 01:12:46;;;;;;;0.50;0.50;;;;;;;;;;4963228;28;20042;-83
2024/01/13 01:15:12;;;;;;;0.50;0.50;;;;;;;;;;4979401;28;20042;-83
2024/01/13 01:18:01;;;;;;;0.50;0.50;;;;;;;;;;4996346;28;20046;-83
2024/01/13 01:20:27;;;;;;;0.50;0.50;;;;;;;;;;4961017;28;20094;-83
2024/01/13 01:22:54;;;;;;;0.45;0.45;;;;;;;;;;4960495;28;20501;-83
2024/01/13 01:25:20;;;;;;;0.50;0.50;;;;;;;;;;4959683;28;20053;-83
2024/01/13 01:27:45;;;;;;;0.50;0.50;;;;;;;;;;4959573;28;20417;-82
2024/01/13 01:30:12;;;;;;;0.43;0.43;;;;;;;;;;4972809;28;20125;-82
2024/01/13 01:32:38;;;;;;;0.50;0.50;;;;;;;;;;4994882;28;20046;-82
2024/01/13 01:35:06;;;;;;;0.50;0.50;;;;;;;;;;4978744;28;20042;-82
2024/01/13 01:37:32;;;;;;;0.50;0.50;;;;;;;;;;4979776;28;20054;-83
2024/01/13 01:39:58;;;;;;;0.50;0.50;;;;;;;;;;4974798;28;20046;-83
2024/01/13 01:42:24;;;;;;;0.50;0.50;;;;;;;;;;4959069;28;20426;-82
2024/01/13 01:44:50;;;;;;;0.45;0.45;;;;;;;;;;4959332;28;20039;-82
2024/01/13 01:47:17;;;;;;;0.60;0.60;;;;;;;;;;4959818;28;20402;-83
2024/01/13 01:49:43;;;;;;;0.50;0.50;;;;;;;;;;4970617;28;20039;-82
2024/01/13 01:52:09;;;;;;;0.45;0.45;;;;;;;;;;4975402;28;20461;-82
2024/01/13 01:54:36;;;;;;;0.60;0.60;;;;;;;;;;4975391;28;20053;-82
2024/01/13 01:57:03;;;;;;;0.50;0.50;;;;;;;;;;4975613;28;20051;-81
2024/01/13 01:59:29;;;;;;;0.50;0.50;;;;;;;;;;4975263;28;20417;-82
2024/01/13 02:01:55;;;;;;;0.60;0.60;;;;;;;;;;4975030;28;20046;-83
2024/01/13 02:04:21;;;;;;;0.50;0.50;;;;;;;;;;4974868;28;20046;-82
2024/01/13 02:06:48;;;;;;;0.50;0.50;;;;;;;;;;4974939;28;20035;-82
2024/01/13 02:09:14;;;;;;;0.50;0.50;;;;;;;;;;4974733;28;20414;-82
2024/01/13 02:11:40;;;;;;;0.50;0.50;;;;;;;;;;4975224;28;20500;-82
2024/01/13 02:14:06;;;;;;;0.50;0.50;;;;;;;;;;4974642;28;20039;-82
2024/01/13 02:16:32;;;;;;;0.40;0.40;;;;;;;;;;4975220;28;20410;-82
2024/01/13 02:18:58;;;;;;;0.50;0.50;;;;;;;;;;4974653;28;20038;-82
2024/01/13 02:21:24;;;;;;;0.50;0.50;;;;;;;;;;4974588;28;20042;-82
2024/01/13 02:23:50;;;;;;;0.50;0.50;;;;;;;;;;4974466;28;20409;-82
2024/01/13 02:26:16;;;;;;;0.50;0.50;;;;;;;;;;4960864;28;20038;-82
2024/01/13 02:28:42;;;;;;;0.50;0.50;;;;;;;;;;4962065;28;20113;-82
2024/01/13 02:31:09;;;;;;;0.50;0.50;;;;;;;;;;4977965;28;20088;-82
2024/01/13 02:33:35;;;;;;;0.50;0.50;;;;;;;;;;4977850;28;20046;-82
2024/01/13 02:36:01;;;;;;;0.50;0.50;;;;;;;;;;4978082;28;20097;-82
2024/01/13 02:38:26;;;;;;;0.60;0.60;;;;;;;;;;4977285;28;20038;-82
2024/01/13 02:40:52;;;;;;;0.45;0.45;;;;;;;;;;4959406;28;20043;-82
2024/01/13 02:43:18;;;;;;;0.50;0.50;;;;;;;;;;4957853;28;20137;-84
2024/01/13 02:45:44;;;;;;;0.50;0.50;;;;;;;;;;4958627;28;20038;-83
2024/01/13 02:48:15;;;;;;;0.50;0.50;;;;;;;;;;4957977;28;20043;-83
2024/01/13 02:50:41;;;;;;;0.50;0.50;;;;;;;;;;4973307;28;20043;-83
2024/01/13 02:53:07;;;;;;;0.40;0.40;;;;;;;;;;4958166;28;20046;-83
2024/01/13 02:55:34;;;;;;;0.50;0.50;;;;;;;;;;4957851;28;20083;-83
2024/01/13 02:58:00;;;;;;;0.60;0.60;;;;;;;;;;4958004;28;20474;-83
2024/01/13 03:00:26;;;;;;;0.50;0.50;;;;;;;;;;4957931;28;20145;-83
2024/01/13 03:02:52;;;;;;;0.50;0.50;;;;;;;;;;4973784;28;20602;-83
2024/01/13 03:05:18;;;;;;;0.50;0.50;;;;;;;;;;4957823;28;20073;-83
2024/01/13 03:07:44;;;;;;;0.50;0.50;;;;;;;;;;4958268;28;20070;-83
2024/01/13 03:10:10;;;;;;;0.50;0.50;;;;;;;;;;4957643;28;20039;-83
2024/01/13 03:12:36;;;;;;;0.50;0.50;;;;;;;;;;4958058;28;20504;-83
2024/01/13 03:15:03;;;;;;;0.50;0.50;;;;;;;;;;4957891;28;20050;-83
2024/01/13 03:17:28;;;;;;;0.40;0.40;;;;;;;;;;4961623;28;20421;-82
2024/01/13 03:19:54;;;;;;;0.50;0.50;;;;;;;;;;4974281;28;20070;-83
2024/01/13 03:22:20;;;;;;;0.60;0.60;;;;;;;;;;4958502;28;20129;-83
2024/01/13 03:24:47;;;;;;;0.60;0.60;;;;;;;;;;4958061;28;20050;-83
2024/01/13 03:27:13;;;;;;;0.50;0.50;;;;;;;;;;4957715;28;20121;-83
2024/01/13 03:29:39;;;;;;;0.50;0.50;;;;;;;;;;4957477;28;20101;-83
2024/01/13 03:32:05;;;;;;;0.50;0.50;;;;;;;;;;4957577;28;20070;-82
2024/01/13 03:34:31;;;;;;;0.52;0.52;;;;;;;;;;4957556;28;20046;-82
2024/01/13 03:36:57;;;;;;;0.50;0.50;;;;;;;;;;4957910;28;20043;-83
2024/01/13 03:39:23;;;;;;;0.55;0.55;;;;;;;;;;4957327;28;20126;-83
2024/01/13 03:41:49;;;;;;;0.50;0.50;;;;;;;;;;4976551;28;20126;-83
2024/01/13 03:44:15;;;;;;;0.47;0.47;;;;;;;;;;4976289;28;20042;-82
2024/01/13 03:46:41;;;;;;;0.60;0.60;;;;;;;;;;4976776;28;20077;-83
2024/01/13 03:49:07;;;;;;;0.50;0.50;;;;;;;;;;4976419;28;20070;-82
2024/01/13 03:51:33;;;;;;;0.50;0.50;;;;;;;;;;4973423;28;20039;-82
2024/01/13 03:53:59;;;;;;;0.50;0.50;;;;;;;;;;4972211;28;20049;-82
2024/01/13 03:56:25;;;;;;;0.50;0.50;;;;;;;;;;4957698;28;20045;-82
2024/01/13 03:58:51;;;;;;;0.50;0.50;;;;;;;;;;4957421;28;20051;-81
2024/01/13 04:01:17;;;;;;;0.50;0.50;;;;;;;;;;4957146;28;20049;-82
2024/01/13 04:03:43;;;;;;;0.50;0.50;;;;;;;;;;4972957;28;20039;-82
2024/01/13 04:06:10;;;;;;;0.50;0.50;;;;;;;;;;4957308;28;20481;-83
2024/01/13 04:08:35;;;;;;;0.40;0.40;;;;;;;;;;4972897;28;20073;-82
2024/01/13 04:11:07;;;;;;;0.50;0.50;;;;;;;;;;4989525;28;20137;-82
2024/01/13 04:13:33;;;;;;;0.50;0.50;;;;;;;;;;4972910;28;20053;-85
2024/01/13 04:15:59;;;;;;;0.60;0.60;;;;;;;;;;4972997;28;20061;-82
2024/01/13 04:18:25;;;;;;;0.40;0.40;;;;;;;;;;4956623;28;20042;-82
2024/01/13 04:20:51;;;;;;;0.60;0.60;;;;;;;;;;4956805;28;20078;-83
2024/01/13 04:23:17;;;;;;;0.60;0.60;;;;;;;;;;4956684;28;20074;-82
2024/01/13 04:25:43;;;;;;;0.43;0.43;;;;;;;;;;4956890;28;20042;-83
2024/01/13 04:28:09;;;;;;;0.50;0.50;;;;;;;;;;4957183;28;20043;-83
2024/01/13 04:30:35;;;;;;;0.50;0.50;;;;;;;;;;4960918;28;20030;-83
2024/01/13 04:33:01;;;;;;;0.50;0.50;;;;;;;;;;4975425;28;20046;-83
2024/01/13 04:35:27;;;;;;;0.50;0.50;;;;;;;;;;4972916;28;20137;-83
2024/01/13 04:37:54;;;;;;;0.50;0.50;;;;;;;;;;4956688;28;20409;-83
2024/01/13 04:40:20;;;;;;;0.55;0.55;;;;;;;;;;4957059;28;20047;-83
2024/01/13 04:42:46;;;;;;;0.50;0.50;;;;;;;;;;4956714;28;20043;-82
2024/01/13 04:45:12;;;;;;;0.40;0.40;;;;;;;;;;4956747;28;20093;-82
2024/01/13 04:47:38;;;;;;;0.50;0.50;;;;;;;;;;4956489;28;20045;-82
2024/01/13 04:50:04;;;;;;;0.50;0.50;;;;;;;;;;4956999;28;20043;-82
2024/01/13 04:52:30;;;;;;;0.47;0.47;;;;;;;;;;4973543;28;20038;-82
2024/01/13 04:54:56;;;;;;;0.57;0.57;;;;;;;;;;4975881;28;20097;-82
2024/01/13 04:57:22;;;;;;;0.50;0.50;;;;;;;;;;4976094;28;20436;-82
2024/01/13 04:59:48;;;;;;;0.50;0.50;;;;;;;;;;4976253;28;20508;-81
2024/01/13 05:02:14;;;;;;;0.50;0.50;;;;;;;;;;4991828;28;20042;-82
2024/01/13 05:04:40;;;;;;;0.50;0.50;;;;;;;;;;4976130;28;20493;-83
2024/01/13 05:07:09;;;;;;;0.50;0.50;;;;;;;;;;4979361;28;20081;-83
2024/01/13 05:09:35;;;;;;;0.50;0.50;;;;;;;;;;4979354;28;20061;-83
2024/01/13 05:12:02;;;;;;;0.50;0.50;;;;;;;;;;4974686;28;20490;-83
2024/01/13 05:14:28;;;;;;;0.50;0.50;;;;;;;;;;4995809;28;20050;-83
2024/01/13 05:16:53;;;;;;;0.50;0.50;;;;;;;;;;4979398;28;20057;-83
2024/01/13 05:19:20;;;;;;;0.50;0.50;;;;;;;;;;4979148;28;20042;-83
2024/01/13 05:21:46;;;;;;;0.40;0.40;;;;;;;;;;4979575;28;20042;-83
2024/01/13 05:24:14;;;;;;;0.50;0.50;;;;;;;;;;4979267;28;20039;-84
2024/01/13 05:26:40;;;;;;;0.43;0.43;;;;;;;;;;4975993;28;20053;-83
2024/01/13 05:29:06;;;;;;;0.47;0.47;;;;;;;;;;4959923;28;20039;-83
2024/01/13 05:31:32;;;;;;;0.50;0.50;;;;;;;;;;4963021;28;20545;-83
2024/01/13 05:33:58;;;;;;;0.50;0.50;;;;;;;;;;4976336;28;20092;-83
2024/01/13 05:36:24;;;;;;;0.50;0.50;;;;;;;;;;4991566;28;20042;-82
2024/01/13 05:38:50;;;;;;;0.60;0.60;;;;;;;;;;4979090;28;20043;-83
2024/01/13 05:41:16;;;;;;;0.50;0.50;;;;;;;;;;4978818;28;20125;-83
2024/01/13 05:43:42;;;;;;;0.50;0.50;;;;;;;;;;4978376;28;20039;-82
2024/01/13 05:46:11;;;;;;;0.50;0.50;;;;;;;;;;4985593;28;20038;-82
2024/01/13 05:48:37;;;;;;;0.40;0.40;;;;;;;;;;4959044;28;20045;-83
2024/01/13 05:51:03;;;;;;;0.40;0.40;;;;;;;;;;4959296;28;20043;-83
2024/01/13 05:53:29;;;;;;;0.50;0.50;;;;;;;;;;4973982;28;20042;-83
2024/01/13 05:55:55;;;;;;;0.43;0.43;;;;;;;;;;4985876;28;20473;-83
2024/01/13 05:58:21;;;;;;;0.40;0.40;;;;;;;;;;4978438;28;20039;-83
2024/01/13 06:00:47;;;;;;;0.50;0.50;;;;;;;;;;4975218;28;20470;-83
2024/01/13 06:03:14;;;;;;;0.55;0.55;;;;;;;;;;4958631;28;20066;-83
2024/01/13 06:05:40;;;;;;;0.40;0.40;;;;;;;;;;4966763;28;20030;-82
2024/01/13 06:08:06;;;;;;;0.40;0.40;;;;;;;;;;4958882;28;20054;-82
2024/01/13 06:10:32;;;;;;;0.50;0.50;;;;;;;;;;4958752;28;20042;-82
2024/01/13 06:12:59;;;;;;;0.50;0.50;;;;;;;;;;4958797;28;20039;-82
2024/01/13 06:15:26;;;;;;;0.50;0.50;;;;;;;;;;4961582;28;20413;-83
2024/01/13 06:17:52;;;;;;;0.50;0.50;;;;;;;;;;4988977;28;20046;-82
2024/01/13 06:20:18;;;;;;;0.50;0.50;;;;;;;;;;4973551;28;20038;-82
2024/01/13 06:22:44;;;;;;;0.47;0.47;;;;;;;;;;4983764;28;20408;-83
2024/01/13 06:25:10;;;;;;;0.50;0.50;;;;;;;;;;4977422;28;20042;-82
2024/01/13 06:27:36;;;;;;;0.50;0.50;;;;;;;;;;4977980;28;20069;-82
2024/01/13 06:30:03;;;;;;;0.50;0.50;;;;;;;;;;4974439;28;20093;-81
2024/01/13 06:32:29;;;;;;;0.50;0.50;;;;;;;;;;4987653;28;20043;-81
2024/01/13 06:34:55;;;;;;;0.50;0.50;;;;;;;;;;4982269;28;20054;-82
2024/01/13 06:37:29;;;;;;;0.40;0.40;;;;;;;;;;4974701;28;20092;-82
2024/01/13 06:39:55;;;;;;;0.40;0.40;;;;;;;;;;4960963;28;20042;-82
2024/01/13 06:42:21;;;;;;;0.50;0.50;;;;;;;;;;4973223;28;20042;-83
2024/01/13 06:44:48;;;;;;;0.50;0.50;;;;;;;;;;4977657;28;20050;-83
2024/01/13 06:47:15;;;;;;;0.50;0.50;;;;;;;;;;4974313;28;20046;-83
2024/01/13 06:49:41;;;;;;;0.50;0.50;;;;;;;;;;4957927;28;20043;-82
2024/01/13 06:52:12;;;;;;;0.47;0.47;;;;;;;;;;4957983;28;20410;-83
2024/01/13 06:54:38;;;;;;;0.55;0.55;;;;;;;;;;4976923;28;20121;-83
2024/01/13 06:57:04;;;;;;;0.50;0.50;;;;;;;;;;4975257;28;20042;-83
2024/01/13 06:59:30;;;;;;;0.40;0.40;;;;;;;;;;4974024;28;20034;-83
2024/01/13 07:01:56;;;;;;;0.40;0.40;;;;;;;;;;4974273;28;20041;-85
2024/01/13 07:04:22;;;;;;;0.50;0.50;;;;;;;;;;4967799;28;20027;-83
2024/01/13 07:06:48;;;;;;;0.50;0.50;;;;;;;;;;4984213;28;20103;-83
2024/01/13 07:09:17;;;;;;;0.50;0.50;;;;;;;;;;4976895;28;20038;-83
2024/01/13 07:11:43;;;;;;;0.50;0.50;;;;;;;;;;4975342;28;20039;-83
2024/01/13 07:14:09;;;;;;;0.50;0.50;;;;;;;;;;4976730;28;20050;-83
2024/01/13 07:16:35;;;;;;;0.50;0.50;;;;;;;;;;4976803;28;20057;-83
2024/01/13 07:19:01;;;;;;;0.50;0.50;;;;;;;;;;4977164;28;20038;-83
2024/01/13 07:21:29;;;;;;;0.50;0.50;;;;;;;;;;4977026;28;20046;-84
2024/01/13 07:23:55;;;;;;;0.50;0.50;;;;;;;;;;4976771;28;20051;-84
2024/01/13 07:26:21;;;;;;;0.57;0.57;;;;;;;;;;4977315;28;20100;-83
2024/01/13 07:28:47;;;;;;;0.40;0.40;;;;;;;;;;4976434;28;20046;-82
2024/01/13 07:31:13;;;;;;;0.60;0.60;;;;;;;;;;4973279;28;20039;-81
2024/01/13 07:33:39;;;;;;;0.50;0.50;;;;;;;;;;4957017;28;20414;-82
2024/01/13 07:36:05;;;;;;;0.60;0.60;;;;;;;;;;4957448;28;20049;-82
2024/01/13 07:38:31;;;;;;;0.47;0.47;;;;;;;;;;4957216;28;20070;-82
2024/01/13 07:40:57;;;;;;;0.50;0.50;;;;;;;;;;4971667;28;20046;-82
2024/01/13 07:43:23;;;;;;;0.50;0.50;;;;;;;;;;4975330;28;20092;-83
2024/01/13 07:45:49;;;;;;;0.55;0.55;;;;;;;;;;4967029;28;20509;-82
2024/01/13 07:48:15;;;;;;;0.50;0.50;;;;;;;;;;4957127;28;20046;-82
2024/01/13 07:50:41;;;;;;;0.50;0.50;;;;;;;;;;4957068;28;20035;-82
2024/01/13 07:53:07;;;;;;;0.50;0.50;;;;;;;;;;4971059;28;20117;-83
2024/01/13 07:55:33;;;;;;;0.50;0.50;;;;;;;;;;4976073;28;20088;-82
2024/01/13 07:57:59;;;;;;;0.40;0.40;;;;;;;;;;4973706;28;20070;-82
2024/01/13 08:00:27;;;;;;;0.40;0.40;;;;;;;;;;4986070;28;20042;-82
2024/01/13 08:02:56;;;;;;;0.50;0.50;;;;;;;;;;4972499;28;20042;-81
2024/01/13 08:05:22;;;;;;;0.50;0.50;;;;;;;;;;4983885;28;20417;-82
2024/01/13 08:07:48;;;;;;;0.50;0.50;;;;;;;;;;4956684;28;20569;-83
2024/01/13 08:10:14;;;;;;;0.50;0.50;;;;;;;;;;4961660;28;20034;-82
2024/01/13 08:12:40;;;;;;;0.55;0.55;;;;;;;;;;4972059;28;20035;-83
2024/01/13 08:15:07;;;;;;;0.50;0.50;;;;;;;;;;4968315;28;20513;-83
2024/01/13 08:17:34;;;;;;;0.40;0.40;;;;;;;;;;4963792;28;20134;-83
2024/01/13 08:20:04;;;;;;;0.50;0.50;;;;;;;;;;4972603;28;20410;-83
2024/01/13 08:22:30;;;;;;;0.60;0.60;;;;;;;;;;4971984;28;20046;-83
2024/01/13 08:24:56;;;;;;;0.50;0.50;;;;;;;;;;4972004;28;20047;-81
2024/01/13 08:27:23;;;;;;;0.55;0.55;;;;;;;;;;4972616;28;20041;-81
2024/01/13 08:29:49;;;;;;;0.50;0.50;;;;;;;;;;4972044;28;20043;-81
2024/01/13 08:32:15;;;;;;;0.50;0.50;;;;;;;;;;4975538;28;20042;-82
2024/01/13 08:34:41;;;;;;;0.55;0.55;;;;;;;;;;4975741;28;20386;-83
2024/01/13 08:37:07;;;;;;;0.40;0.40;;;;;;;;;;4956215;28;20050;-82
2024/01/13 08:39:42;;;;;;;0.60;0.60;;;;;;;;;;4970910;28;20046;-82
2024/01/13 08:42:08;;;;;;;0.50;0.50;;;;;;;;;;4975673;28;20046;-81
2024/01/13 08:44:34;;;;;;;0.40;0.40;;;;;;;;;;4959904;28;20050;-83
2024/01/13 08:47:00;;;;;;;0.50;0.50;;;;;;;;;;4963025;28;21814;-83
2024/01/13 08:49:27;;;;;;;0.50;0.50;;;;;;;;;;4978948;28;20049;-83
2024/01/13 08:51:53;;;;;;;0.50;0.50;;;;;;;;;;4995278;28;20185;-83
2024/01/13 08:54:20;;;;;;;0.50;0.50;;;;;;;;;;4975194;28;20421;-83
2024/01/13 08:56:46;;;;;;;0.50;0.50;;;;;;;;;;4965146;28;20497;-81
2024/01/13 08:59:12;;;;;;;0.50;0.50;;;;;;;;;;4975664;28;20133;-82
2024/01/13 09:01:38;;;;;;;0.50;0.50;;;;;;;;;;4975991;28;20140;-87
2024/01/13 09:04:04;;;;;;;0.50;0.50;;;;;;;;;;4976979;28;20038;-82
2024/01/13 09:06:30;;;;;;;0.45;0.45;;;;;;;;;;4979223;28;20038;-82
2024/01/13 09:08:56;;;;;;;0.40;0.40;;;;;;;;;;4975594;28;20094;-82
2024/01/13 09:11:22;;;;;;;0.40;0.40;;;;;;;;;;4962002;28;20398;-82
2024/01/13 09:13:48;;;;;;;0.50;0.50;;;;;;;;;;4973327;28;20117;-82
2024/01/13 09:16:14;;;;;;;0.50;0.50;;;;;;;;;;4975497;28;20403;-82
2024/01/13 09:18:40;;;;;;;0.50;0.50;;;;;;;;;;4959046;28;20137;-82
2024/01/13 09:21:08;;;;;;;0.50;0.50;;;;;;;;;;4975290;28;20043;-81
2024/01/13 09:23:34;;;;;;;0.50;0.50;;;;;;;;;;4968008;28;20066;-82
2024/01/13 09:26:02;;;;;;;0.50;0.50;;;;;;;;;;4971459;28;20066;-82
2024/01/13 09:28:28;;;;;;;0.45;0.45;;;;;;;;;;4967107;28;20442;-83
2024/01/13 09:30:54;;;;;;;0.50;0.50;;;;;;;;;;4959064;28;20046;-82
2024/01/13 09:33:21;;;;;;;0.50;0.50;;;;;;;;;;4958338;28;20039;-84
2024/01/13 09:35:47;;;;;;;0.50;0.50;;;;;;;;;;4959211;28;20104;-82
2024/01/13 09:38:13;;;;;;;0.50;0.50;;;;;;;;;;4959335;28;20046;-82
2024/01/13 09:40:41;;;;;;;0.40;0.40;;;;;;;;;;4964046;28;20234;-83
2024/01/13 09:43:10;;;;;;;0.50;0.50;;;;;;;;;;4974763;28;20130;-83
2024/01/13 09:45:38;;;;;;;0.50;0.50;;;;;;;;;;4974526;28;20047;-83
2024/01/13 09:48:08;;;;;;;0.50;0.50;;;;;;;;;;4958768;28;20045;-83
2024/01/13 09:50:34;;;;;;;0.50;0.50;;;;;;;;;;4962486;28;20039;-83
2024/01/13 09:53:02;;;;;;;0.50;0.50;;;;;;;;;;4958869;28;20091;-83
2024/01/13 09:55:28;;;;;;;0.45;0.45;;;;;;;;;;4978038;28;20081;-83
2024/01/13 09:57:55;;;;;;;0.50;0.50;;;;;;;;;;4994172;28;20082;-83
2024/01/13 10:00:21;;;;;;;0.50;0.50;;;;;;;;;;4978341;28;20058;-83
2024/01/13 10:02:47;;;;;;;0.50;0.50;;;;;;;;;;4977205;28;20034;-81
2024/01/13 10:05:13;;;;;;;0.50;0.50;;;;;;;;;;4966786;28;20046;-83
2024/01/13 10:07:43;;;;;;;0.50;0.50;;;;;;;;;;4960065;28;20429;-82
2024/01/13 10:10:09;;;;;;;0.50;0.50;;;;;;;;;;4963102;28;20478;-82
2024/01/13 10:12:36;;;;;;;0.50;0.50;;;;;;;;;;4980687;28;20035;-84
2024/01/13 10:15:11;;;;;;;0.50;0.50;;;;;;;;;;4968436;28;20043;-84
2024/01/13 10:17:37;;;;;;;0.50;0.50;;;;;;;;;;4977705;28;20054;-86
2024/01/13 10:20:04;;;;;;;0.50;0.50;;;;;;;;;;4958071;28;20046;-84
2024/01/13 10:22:30;;;;;;;0.50;0.50;;;;;;;;;;4961028;28;20101;-83
2024/01/13 10:24:56;;;;;;;0.50;0.50;;;;;;;;;;4960816;28;20050;-83
2024/01/13 10:27:22;;;;;;;0.50;0.50;;;;;;;;;;4959678;28;20657;-82
2024/01/13 10:29:52;;;;;;;0.50;0.50;;;;;;;;;;4968961;28;20038;-83
2024/01/13 10:32:18;;;;;;;0.50;0.50;;;;;;;;;;4973585;28;20043;-83
2024/01/13 10:34:50;;;;;;;0.50;0.50;;;;;;;;;;4962126;28;20046;-81
2024/01/13 10:37:17;;;;;;;0.50;0.50;;;;;;;;;;4972148;28;20122;-83
2024/01/13 10:39:43;;;;;;;0.52;0.52;;;;;;;;;;4958056;28;20534;-82
2024/01/13 10:42:10;;;;;;;0.50;0.50;;;;;;;;;;4957610;28;20421;-82
2024/01/13 10:44:42;;;;;;;0.50;0.50;;;;;;;;;;4957698;28;20457;-83
2024/01/13 10:47:11;;;;;;;0.50;0.50;;;;;;;;;;4958447;28;20129;-82
2024/01/13 10:49:38;;;;;;;0.50;0.50;;;;;;;;;;4958700;28;20420;-83
2024/01/13 10:52:05;;;;;;;0.50;0.50;;;;;;;;;;4958205;28;20039;-83
2024/01/13 10:54:32;;;;;;;0.50;0.50;;;;;;;;;;4957999;28;20074;-83
2024/01/13 10:56:58;;;;;;;0.50;0.50;;;;;;;;;;4973939;28;20046;-83
2024/01/13 10:59:28;;;;;;;0.50;0.50;;;;;;;;;;4962165;28;20042;-83
2024/01/13 11:01:56;;;;;;;0.50;0.50;;;;;;;;;;4961746;28;20042;-84
2024/01/13 11:04:23;;;;;;;1.17;1.10;;;;;;;;;;4972527;28;20892;-83
2024/01/13 11:06:49;;;;;;;0.50;0.50;;;;;;;;;;4976539;28;20093;-83
2024/01/13 11:09:16;;;;;;;0.40;0.40;;;;;;;;;;4992586;28;20453;-84
2024/01/13 11:11:51;;;;;;;0.50;0.50;;;;;;;;;;4973404;28;20505;-83
2024/01/13 11:14:31;;;;;;;0.40;0.40;;;;;;;;;;4974378;28;20050;-83
2024/01/13 11:16:58;;;;;;;0.50;0.50;;;;;;;;;;4957393;28;20129;-84
2024/01/13 11:19:24;;;;;;;0.50;0.50;;;;;;;;;;4957150;28;20039;-81
2024/01/13 11:21:51;;;;;;;0.50;0.50;;;;;;;;;;4961675;28;20494;-83
2024/01/13 11:24:17;;;;;;;0.50;0.50;;;;;;;;;;4958457;28;20113;-82
2024/01/13 11:26:45;;;;;;;0.50;0.50;;;;;;;;;;4976292;28;20034;-82
2024/01/13 11:29:21;;;;;;;0.68;0.68;;;;;;;;;;4976778;28;20073;-82
2024/01/13 11:31:47;;;;;;;0.50;0.50;;;;;;;;;;4971848;28;20446;-82
2024/01/13 11:34:17;;;;;;;0.50;0.50;;;;;;;;;;4972575;28;20105;-83
2024/01/13 11:36:50;;;;;;;1.77;1.67;;;;;;;;;;4957355;28;20175;-82
2024/01/13 11:39:17;;;;;;;0.50;0.50;;;;;;;;;;4957381;28;20047;-82
2024/01/13 11:41:47;;;;;;;0.50;0.50;;;;;;;;;;4957021;28;20047;-82
2024/01/13 11:44:22;;;;;;;0.90;0.90;;;;;;;;;;4956596;28;20109;-82
2024/01/13 11:47:15;;;;;;;0.50;0.50;;;;;;;;;;4959145;28;20386;-82
2024/01/13 11:49:43;;;;;;;0.60;0.60;;;;;;;;;;4956343;28;20413;-82
2024/01/13 11:52:15;;;;;;;0.60;0.60;;;;;;;;;;5188646;23;20047;-81
2024/01/13 11:54:43;;;;;;;0.50;0.50;;;;;;;;;;4949297;28;20046;-80
2024/01/13 11:57:13;;;;;;;0.57;0.57;;;;;;;;;;4949443;28;20068;-81
2024/01/13 11:59:39;;;;;;;0.52;0.52;;;;;;;;;;4946047;28;20054;-80
2024/01/13 12:02:06;;;;;;;0.50;0.50;;;;;;;;;;4945663;28;20573;-81
2024/01/13 12:04:34;;;;;;;0.50;0.50;;;;;;;;;;4946520;28;20396;-81
2024/01/13 12:07:00;;;;;;;0.40;0.40;;;;;;;;;;4947969;28;20047;-80
2024/01/13 12:09:27;;;;;;;0.50;0.50;;;;;;;;;;4946686;28;20043;-81
2024/01/13 12:11:54;;;;;;;0.50;0.50;;;;;;;;;;4947661;28;20038;-81
2024/01/13 12:14:30;;;;;;;0.50;0.50;;;;;;;;;;4944262;28;20039;-82
2024/01/13 12:16:57;;;;;;;0.50;0.50;;;;;;;;;;4943649;29;20425;-81
2024/01/13 12:19:24;;;;;;;0.50;0.50;;;;;;;;;;4966954;28;20057;-81
2024/01/13 12:21:50;;;;;;;0.50;0.50;;;;;;;;;;4950830;28;20382;-81
2024/01/13 12:24:16;;;;;;;0.43;0.43;;;;;;;;;;4948178;28;20047;-81
2024/01/13 12:26:43;;;;;;;0.50;0.50;;;;;;;;;;4947337;28;20043;-81
2024/01/13 12:29:09;;;;;;;0.50;0.50;;;;;;;;;;4948817;28;20043;-81
2024/01/13 12:31:35;;;;;;;0.40;0.40;;;;;;;;;;4949885;28;20041;-81
2024/01/13 12:34:11;;;;;;;0.50;0.50;;;;;;;;;;4947857;28;20111;-82
2024/01/13 12:36:38;;;;;;;0.50;0.50;;;;;;;;;;4950128;28;20390;-82
2024/01/13 12:39:05;;;;;;;0.50;0.50;;;;;;;;;;4965902;28;20054;-81
2024/01/13 12:41:31;;;;;;;0.50;0.50;;;;;;;;;;4947719;28;20122;-81
2024/01/13 12:43:58;;;;;;;0.50;0.50;;;;;;;;;;4952706;28;20039;-80
2024/01/13 12:46:24;;;;;;;0.40;0.40;;;;;;;;;;4952821;28;20042;-81
2024/01/13 12:48:50;;;;;;;0.50;0.50;;;;;;;;;;4947129;28;20134;-81
2024/01/13 12:51:16;;;;;;;0.50;0.50;;;;;;;;;;4952690;28;20584;-81
2024/01/13 12:53:43;;;;;;;0.50;0.50;;;;;;;;;;4948386;28;20540;-81
2024/01/13 12:56:09;;;;;;;0.50;0.50;;;;;;;;;;4950071;28;20126;-81
2024/01/13 12:58:36;;;;;;;0.50;0.50;;;;;;;;;;4967887;28;20493;-81
2024/01/13 13:01:04;;;;;;;0.50;0.50;;;;;;;;;;4972376;28;20486;-81
2024/01/13 13:03:30;;;;;;;0.50;0.50;;;;;;;;;;4956290;28;20081;-81
2024/01/13 13:05:56;;;;;;;1.20;1.10;;;;;;;;;;4953488;28;20565;-81
2024/01/13 13:08:21;;;;;;;0.50;0.50;;;;;;;;;;4961873;28;20034;-81
2024/01/13 13:10:48;;;;;;;0.50;0.50;;;;;;;;;;4976792;28;20035;-81
2024/01/13 13:13:13;;;;;;;0.50;0.50;;;;;;;;;;4960410;28;20050;-81
2024/01/13 13:15:39;;;;;;;0.40;0.40;;;;;;;;;;4956624;28;20485;-81
2024/01/13 13:18:06;;;;;;;0.40;0.40;;;;;;;;;;4955193;28;20417;-81
2024/01/13 13:20:33;;;;;;;0.50;0.50;;;;;;;;;;4955477;28;20046;-81
2024/01/13 13:22:59;;;;;;;0.50;0.50;;;;;;;;;;4954803;28;20778;-81
2024/01/13 13:25:25;;;;;;;0.50;0.50;;;;;;;;;;4955391;28;20042;-81
2024/01/13 13:27:52;;;;;;;0.40;0.40;;;;;;;;;;4954924;28;20039;-81
2024/01/13 13:30:18;;;;;;;0.50;0.50;;;;;;;;;;4956355;28;20097;-81
2024/01/13 13:32:44;;;;;;;0.50;0.50;;;;;;;;;;4963839;28;20043;-81
2024/01/13 13:35:11;;;;;;;0.50;0.50;;;;;;;;;;4956393;28;20035;-81
2024/01/13 13:37:37;;;;;;;0.50;0.50;;;;;;;;;;4971111;28;20046;-81
2024/01/13 13:40:03;;;;;;;0.50;0.50;;;;;;;;;;4956772;28;20047;-81
2024/01/13 13:42:29;;;;;;;0.50;0.50;;;;;;;;;;4971428;28;20064;-81
2024/01/13 13:44:56;;;;;;;0.50;0.50;;;;;;;;;;4972661;28;20031;-81
2024/01/13 13:47:21;;;;;;;0.45;0.45;;;;;;;;;;4972803;28;20043;-80
2024/01/13 13:49:47;;;;;;;0.52;0.52;;;;;;;;;;4972157;28;20499;-81
2024/01/13 13:52:13;;;;;;;0.40;0.40;;;;;;;;;;4966262;28;20112;-81
2024/01/13 13:54:39;;;;;;;0.50;0.50;;;;;;;;;;4956251;28;20046;-81
2024/01/13 13:57:06;;;;;;;0.50;0.50;;;;;;;;;;4947816;28;20394;-81
2024/01/13 13:59:31;;;;;;;0.50;0.50;;;;;;;;;;4952665;28;20085;-81
2024/01/13 14:01:57;;;;;;;0.50;0.50;;;;;;;;;;4972173;28;20137;-81
2024/01/13 14:04:23;;;;;;;0.50;0.50;;;;;;;;;;4955947;28;20050;-81
2024/01/13 14:06:49;;;;;;;0.50;0.50;;;;;;;;;;4956438;28;20601;-81
2024/01/13 14:09:15;;;;;;;0.50;0.50;;;;;;;;;;4956587;28;20038;-81
2024/01/13 14:11:41;;;;;;;0.50;0.50;;;;;;;;;;4956273;28;20074;-80
2024/01/13 14:14:08;;;;;;;0.50;0.50;;;;;;;;;;4970087;28;20511;-81
2024/01/13 14:16:34;;;;;;;0.50;0.50;;;;;;;;;;4954984;28;20070;-81
2024/01/13 14:19:00;;;;;;;0.50;0.50;;;;;;;;;;4952718;28;20169;-81
2024/01/13 14:21:26;;;;;;;0.45;0.45;;;;;;;;;;4955211;28;20046;-81
2024/01/13 14:23:52;;;;;;;0.50;0.50;;;;;;;;;;4955691;28;20074;-81
2024/01/13 14:26:18;;;;;;;0.50;0.50;;;;;;;;;;4952344;28;20035;-81
2024/01/13 14:28:44;;;;;;;0.50;0.50;;;;;;;;;;4963619;28;20445;-81
2024/01/13 14:31:11;;;;;;;0.50;0.50;;;;;;;;;;4943918;28;20457;-81
2024/01/13 14:33:37;;;;;;;0.50;0.50;;;;;;;;;;4950477;28;20089;-81
2024/01/13 14:36:03;;;;;;;0.40;0.40;;;;;;;;;;4952918;28;20031;-81
2024/01/13 14:38:30;;;;;;;0.40;0.40;;;;;;;;;;4950155;28;20045;-82
2024/01/13 14:40:56;;;;;;;0.50;0.50;;;;;;;;;;4966092;28;20047;-81